sensor_id;sensor_type;location;lat;lon;timestamp;P1;durP1;ratioP1;P2;durP2;ratioP2
5867;SDS011;2960;49.142;7.768;2023-03-02T00:02:12;8.50;;;2.70;;
5867;SDS011;2960;49.142;7.768;2023-03-02T00:04:48;9.43;;;3.10;;
5867;SDS011;2960;49.142;7.768;2023-03-02T00:07:19;9.07;;;3.20;;
5867;SDS011;2960;49.142;7.768;2023-03-02T00:09:50;9.60;;;3.13;;
5867;SDS011;2960;49.142;7.768;2023-03-02T00:12:20;11.50;;;3.33;;
5867;SDS011;2960;49.142;7.768;2023-03-02T00:14:47;8.20;;;3.10;;
5867;SDS011;2960;49.142;7.768;2023-03-02T00:17:14;9.70;;;3.07;;
5867;SDS011;2960;49.142;7.768;2023-03-02T00:19:41;9.67;;;2.97;;
5867;SDS011;2960;49.142;7.768;2023-03-02T00:22:09;8.33;;;2.53;;
5867;SDS011;2960;49.142;7.768;2023-03-02T00:24:36;9.67;;;3.60;;
5867;SDS011;2960;49.142;7.768;2023-03-02T00:27:03;11.80;;;3.10;;
5867;SDS011;2960;49.142;7.768;2023-03-02T00:29:31;9.93;;;3.10;;
5867;SDS011;2960;49.142;7.768;2023-03-02T00:31:58;9.40;;;2.87;;
5867;SDS011;2960;49.142;7.768;2023-03-02T00:34:27;10.53;;;2.90;;
5867;SDS011;2960;49.142;7.768;2023-03-02T00:36:56;10.27;;;3.30;;
5867;SDS011;2960;49.142;7.768;2023-03-02T00:39:24;9.50;;;3.03;;
5867;SDS011;2960;49.142;7.768;2023-03-02T00:41:51;7.90;;;2.30;;
5867;SDS011;2960;49.142;7.768;2023-03-02T00:44:18;8.80;;;2.80;;
5867;SDS011;2960;49.142;7.768;2023-03-02T00:46:46;9.77;;;3.27;;
5867;SDS011;2960;49.142;7.768;2023-03-02T00:49:13;12.20;;;3.20;;
5867;SDS011;2960;49.142;7.768;2023-03-02T00:51:42;8.53;;;3.00;;
5867;SDS011;2960;49.142;7.768;2023-03-02T00:54:09;10.70;;;2.90;;
5867;SDS011;2960;49.142;7.768;2023-03-02T00:56:37;9.40;;;2.90;;
5867;SDS011;2960;49.142;7.768;2023-03-02T00:59:04;9.67;;;2.70;;
5867;SDS011;2960;49.142;7.768;2023-03-02T01:01:35;9.03;;;3.20;;
5867;SDS011;2960;49.142;7.768;2023-03-02T01:04:04;9.93;;;3.13;;
5867;SDS011;2960;49.142;7.768;2023-03-02T01:06:31;12.27;;;2.90;;
5867;SDS011;2960;49.142;7.768;2023-03-02T01:08:58;10.60;;;2.97;;
5867;SDS011;2960;49.142;7.768;2023-03-02T01:11:25;12.17;;;2.93;;
5867;SDS011;2960;49.142;7.768;2023-03-02T01:13:53;9.50;;;3.33;;
5867;SDS011;2960;49.142;7.768;2023-03-02T01:16:20;9.70;;;3.40;;
5867;SDS011;2960;49.142;7.768;2023-03-02T01:18:48;9.10;;;3.00;;
5867;SDS011;2960;49.142;7.768;2023-03-02T01:21:17;8.80;;;2.80;;
5867;SDS011;2960;49.142;7.768;2023-03-02T01:23:44;10.20;;;3.50;;
5867;SDS011;2960;49.142;7.768;2023-03-02T01:26:11;9.17;;;3.13;;
5867;SDS011;2960;49.142;7.768;2023-03-02T01:28:41;8.80;;;3.00;;
5867;SDS011;2960;49.142;7.768;2023-03-02T01:31:08;10.00;;;3.10;;
5867;SDS011;2960;49.142;7.768;2023-03-02T01:33:35;9.77;;;3.57;;
5867;SDS011;2960;49.142;7.768;2023-03-02T01:36:02;9.80;;;3.33;;
5867;SDS011;2960;49.142;7.768;2023-03-02T01:38:31;10.03;;;3.03;;
5867;SDS011;2960;49.142;7.768;2023-03-02T01:40:58;9.47;;;3.10;;
5867;SDS011;2960;49.142;7.768;2023-03-02T01:43:25;8.70;;;2.90;;
5867;SDS011;2960;49.142;7.768;2023-03-02T01:45:53;10.07;;;3.10;;
5867;SDS011;2960;49.142;7.768;2023-03-02T01:48:25;9.20;;;3.40;;
5867;SDS011;2960;49.142;7.768;2023-03-02T01:50:55;8.00;;;2.73;;
5867;SDS011;2960;49.142;7.768;2023-03-02T01:53:24;10.27;;;3.50;;
5867;SDS011;2960;49.142;7.768;2023-03-02T01:55:55;8.40;;;2.70;;
5867;SDS011;2960;49.142;7.768;2023-03-02T01:58:23;9.07;;;2.70;;
5867;SDS011;2960;49.142;7.768;2023-03-02T02:00:51;9.23;;;3.30;;
5867;SDS011;2960;49.142;7.768;2023-03-02T02:03:20;9.10;;;2.97;;
5867;SDS011;2960;49.142;7.768;2023-03-02T02:05:54;9.40;;;3.27;;
5867;SDS011;2960;49.142;7.768;2023-03-02T02:08:27;8.80;;;3.10;;
5867;SDS011;2960;49.142;7.768;2023-03-02T02:10:55;8.90;;;3.03;;
5867;SDS011;2960;49.142;7.768;2023-03-02T02:13:23;9.43;;;3.20;;
5867;SDS011;2960;49.142;7.768;2023-03-02T02:15:50;8.60;;;2.63;;
5867;SDS011;2960;49.142;7.768;2023-03-02T02:18:18;8.53;;;2.80;;
5867;SDS011;2960;49.142;7.768;2023-03-02T02:20:45;10.33;;;3.00;;
5867;SDS011;2960;49.142;7.768;2023-03-02T02:23:20;9.93;;;3.10;;
5867;SDS011;2960;49.142;7.768;2023-03-02T02:25:58;9.50;;;2.90;;
5867;SDS011;2960;49.142;7.768;2023-03-02T02:28:33;8.47;;;2.97;;
5867;SDS011;2960;49.142;7.768;2023-03-02T02:31:08;8.87;;;3.03;;
5867;SDS011;2960;49.142;7.768;2023-03-02T02:33:40;10.30;;;3.30;;
5867;SDS011;2960;49.142;7.768;2023-03-02T02:36:14;8.60;;;2.90;;
5867;SDS011;2960;49.142;7.768;2023-03-02T02:38:46;10.93;;;3.20;;
5867;SDS011;2960;49.142;7.768;2023-03-02T02:41:19;9.27;;;3.00;;
5867;SDS011;2960;49.142;7.768;2023-03-02T02:43:50;9.40;;;3.33;;
5867;SDS011;2960;49.142;7.768;2023-03-02T02:46:17;10.60;;;3.47;;
5867;SDS011;2960;49.142;7.768;2023-03-02T02:48:45;10.50;;;2.87;;
5867;SDS011;2960;49.142;7.768;2023-03-02T02:51:13;9.50;;;3.13;;
5867;SDS011;2960;49.142;7.768;2023-03-02T02:53:47;9.40;;;3.30;;
5867;SDS011;2960;49.142;7.768;2023-03-02T02:56:25;9.27;;;3.33;;
5867;SDS011;2960;49.142;7.768;2023-03-02T02:58:55;9.80;;;3.63;;
5867;SDS011;2960;49.142;7.768;2023-03-02T03:01:25;10.53;;;3.20;;
5867;SDS011;2960;49.142;7.768;2023-03-02T03:03:53;9.83;;;3.27;;
5867;SDS011;2960;49.142;7.768;2023-03-02T03:06:27;9.70;;;3.40;;
5867;SDS011;2960;49.142;7.768;2023-03-02T03:09:06;11.37;;;3.23;;
5867;SDS011;2960;49.142;7.768;2023-03-02T03:11:37;9.53;;;3.07;;
5867;SDS011;2960;49.142;7.768;2023-03-02T03:14:08;9.43;;;3.37;;
5867;SDS011;2960;49.142;7.768;2023-03-02T03:16:37;11.20;;;3.50;;
5867;SDS011;2960;49.142;7.768;2023-03-02T03:19:10;10.60;;;3.47;;
5867;SDS011;2960;49.142;7.768;2023-03-02T03:21:42;10.60;;;3.60;;
5867;SDS011;2960;49.142;7.768;2023-03-02T03:24:09;9.80;;;3.03;;
5867;SDS011;2960;49.142;7.768;2023-03-02T03:26:38;11.03;;;3.00;;
5867;SDS011;2960;49.142;7.768;2023-03-02T03:29:05;10.13;;;3.40;;
5867;SDS011;2960;49.142;7.768;2023-03-02T03:31:33;11.80;;;3.87;;
5867;SDS011;2960;49.142;7.768;2023-03-02T03:34:00;10.60;;;3.43;;
5867;SDS011;2960;49.142;7.768;2023-03-02T03:36:28;10.33;;;3.23;;
5867;SDS011;2960;49.142;7.768;2023-03-02T03:38:58;8.93;;;3.23;;
5867;SDS011;2960;49.142;7.768;2023-03-02T03:41:27;10.10;;;3.33;;
5867;SDS011;2960;49.142;7.768;2023-03-02T03:43:56;10.53;;;3.30;;
5867;SDS011;2960;49.142;7.768;2023-03-02T03:46:23;13.43;;;4.03;;
5867;SDS011;2960;49.142;7.768;2023-03-02T03:48:53;11.40;;;3.53;;
5867;SDS011;2960;49.142;7.768;2023-03-02T03:51:21;12.40;;;3.70;;
5867;SDS011;2960;49.142;7.768;2023-03-02T03:53:49;10.60;;;3.33;;
5867;SDS011;2960;49.142;7.768;2023-03-02T03:56:24;9.60;;;3.30;;
5867;SDS011;2960;49.142;7.768;2023-03-02T03:58:51;10.30;;;3.70;;
5867;SDS011;2960;49.142;7.768;2023-03-02T04:01:32;9.30;;;3.23;;
5867;SDS011;2960;49.142;7.768;2023-03-02T04:04:00;11.80;;;3.87;;
5867;SDS011;2960;49.142;7.768;2023-03-02T04:06:28;10.07;;;3.53;;
5867;SDS011;2960;49.142;7.768;2023-03-02T04:08:55;11.53;;;3.67;;
5867;SDS011;2960;49.142;7.768;2023-03-02T04:11:29;9.17;;;3.13;;
5867;SDS011;2960;49.142;7.768;2023-03-02T04:13:56;14.13;;;3.63;;
5867;SDS011;2960;49.142;7.768;2023-03-02T04:16:26;11.03;;;3.33;;
5867;SDS011;2960;49.142;7.768;2023-03-02T04:18:55;9.57;;;3.30;;
5867;SDS011;2960;49.142;7.768;2023-03-02T04:21:23;9.53;;;3.50;;
5867;SDS011;2960;49.142;7.768;2023-03-02T04:23:51;8.70;;;2.90;;
5867;SDS011;2960;49.142;7.768;2023-03-02T04:26:19;10.30;;;3.50;;
5867;SDS011;2960;49.142;7.768;2023-03-02T04:28:46;11.53;;;3.23;;
5867;SDS011;2960;49.142;7.768;2023-03-02T04:31:17;10.10;;;3.43;;
5867;SDS011;2960;49.142;7.768;2023-03-02T04:33:44;11.67;;;2.93;;
5867;SDS011;2960;49.142;7.768;2023-03-02T04:36:13;10.57;;;3.00;;
5867;SDS011;2960;49.142;7.768;2023-03-02T04:38:40;9.80;;;3.10;;
5867;SDS011;2960;49.142;7.768;2023-03-02T04:41:07;10.73;;;3.33;;
5867;SDS011;2960;49.142;7.768;2023-03-02T04:43:34;10.73;;;3.23;;
5867;SDS011;2960;49.142;7.768;2023-03-02T04:46:02;12.77;;;3.73;;
5867;SDS011;2960;49.142;7.768;2023-03-02T04:48:30;10.53;;;3.13;;
5867;SDS011;2960;49.142;7.768;2023-03-02T04:50:59;9.30;;;3.20;;
5867;SDS011;2960;49.142;7.768;2023-03-02T04:53:28;10.30;;;3.40;;
5867;SDS011;2960;49.142;7.768;2023-03-02T04:55:55;11.03;;;3.80;;
5867;SDS011;2960;49.142;7.768;2023-03-02T04:58:22;9.40;;;3.37;;
5867;SDS011;2960;49.142;7.768;2023-03-02T05:00:49;9.43;;;3.23;;
5867;SDS011;2960;49.142;7.768;2023-03-02T05:03:18;11.10;;;3.20;;
5867;SDS011;2960;49.142;7.768;2023-03-02T05:05:45;12.33;;;3.73;;
5867;SDS011;2960;49.142;7.768;2023-03-02T05:08:12;12.20;;;3.60;;
5867;SDS011;2960;49.142;7.768;2023-03-02T05:10:42;9.53;;;3.03;;
5867;SDS011;2960;49.142;7.768;2023-03-02T05:13:09;10.50;;;3.57;;
5867;SDS011;2960;49.142;7.768;2023-03-02T05:15:37;10.30;;;3.20;;
5867;SDS011;2960;49.142;7.768;2023-03-02T05:18:08;10.40;;;3.40;;
5867;SDS011;2960;49.142;7.768;2023-03-02T05:20:40;12.37;;;3.50;;
5867;SDS011;2960;49.142;7.768;2023-03-02T05:23:08;11.43;;;3.60;;
5867;SDS011;2960;49.142;7.768;2023-03-02T05:25:37;12.27;;;3.23;;
5867;SDS011;2960;49.142;7.768;2023-03-02T05:28:05;11.30;;;3.70;;
5867;SDS011;2960;49.142;7.768;2023-03-02T05:30:32;11.63;;;3.00;;
5867;SDS011;2960;49.142;7.768;2023-03-02T05:33:01;10.77;;;3.43;;
5867;SDS011;2960;49.142;7.768;2023-03-02T05:35:29;10.43;;;3.50;;
5867;SDS011;2960;49.142;7.768;2023-03-02T05:37:56;10.50;;;3.27;;
5867;SDS011;2960;49.142;7.768;2023-03-02T05:40:23;12.13;;;3.80;;
5867;SDS011;2960;49.142;7.768;2023-03-02T05:42:50;11.70;;;3.50;;
5867;SDS011;2960;49.142;7.768;2023-03-02T05:45:23;10.80;;;3.60;;
5867;SDS011;2960;49.142;7.768;2023-03-02T05:47:53;9.40;;;3.17;;
5867;SDS011;2960;49.142;7.768;2023-03-02T05:50:20;10.57;;;3.70;;
5867;SDS011;2960;49.142;7.768;2023-03-02T05:52:47;10.97;;;3.60;;
5867;SDS011;2960;49.142;7.768;2023-03-02T05:55:15;10.43;;;3.90;;
5867;SDS011;2960;49.142;7.768;2023-03-02T05:57:44;13.27;;;4.33;;
5867;SDS011;2960;49.142;7.768;2023-03-02T06:00:13;13.20;;;4.50;;
5867;SDS011;2960;49.142;7.768;2023-03-02T06:02:44;12.20;;;4.03;;
5867;SDS011;2960;49.142;7.768;2023-03-02T06:05:12;14.90;;;4.40;;
5867;SDS011;2960;49.142;7.768;2023-03-02T06:07:42;11.30;;;4.33;;
5867;SDS011;2960;49.142;7.768;2023-03-02T06:10:10;11.33;;;4.43;;
5867;SDS011;2960;49.142;7.768;2023-03-02T06:12:39;14.10;;;4.60;;
5867;SDS011;2960;49.142;7.768;2023-03-02T06:15:07;11.97;;;4.10;;
5867;SDS011;2960;49.142;7.768;2023-03-02T06:17:35;12.87;;;4.50;;
5867;SDS011;2960;49.142;7.768;2023-03-02T06:20:05;12.57;;;4.43;;
5867;SDS011;2960;49.142;7.768;2023-03-02T06:22:35;11.47;;;4.23;;
5867;SDS011;2960;49.142;7.768;2023-03-02T06:25:05;11.00;;;4.27;;
5867;SDS011;2960;49.142;7.768;2023-03-02T06:27:33;10.67;;;3.70;;
5867;SDS011;2960;49.142;7.768;2023-03-02T06:30:02;11.20;;;3.60;;
5867;SDS011;2960;49.142;7.768;2023-03-02T06:32:30;13.20;;;4.00;;
5867;SDS011;2960;49.142;7.768;2023-03-02T06:35:00;11.80;;;4.40;;
5867;SDS011;2960;49.142;7.768;2023-03-02T06:37:29;14.87;;;4.83;;
5867;SDS011;2960;49.142;7.768;2023-03-02T06:39:56;12.57;;;4.40;;
5867;SDS011;2960;49.142;7.768;2023-03-02T06:42:24;10.73;;;4.40;;
5867;SDS011;2960;49.142;7.768;2023-03-02T06:44:53;12.17;;;4.70;;
5867;SDS011;2960;49.142;7.768;2023-03-02T06:47:20;14.60;;;5.50;;
5867;SDS011;2960;49.142;7.768;2023-03-02T06:49:48;15.93;;;5.90;;
5867;SDS011;2960;49.142;7.768;2023-03-02T06:52:15;13.40;;;5.20;;
5867;SDS011;2960;49.142;7.768;2023-03-02T06:54:44;12.40;;;4.90;;
5867;SDS011;2960;49.142;7.768;2023-03-02T06:57:11;14.27;;;4.87;;
5867;SDS011;2960;49.142;7.768;2023-03-02T06:59:38;13.33;;;5.10;;
5867;SDS011;2960;49.142;7.768;2023-03-02T07:02:05;13.53;;;5.27;;
5867;SDS011;2960;49.142;7.768;2023-03-02T07:04:34;15.73;;;5.70;;
5867;SDS011;2960;49.142;7.768;2023-03-02T07:07:01;12.20;;;5.00;;
5867;SDS011;2960;49.142;7.768;2023-03-02T07:09:31;14.67;;;5.50;;
5867;SDS011;2960;49.142;7.768;2023-03-02T07:12:00;10.70;;;4.50;;
5867;SDS011;2960;49.142;7.768;2023-03-02T07:14:28;11.37;;;4.50;;
5867;SDS011;2960;49.142;7.768;2023-03-02T07:16:55;12.33;;;4.90;;
5867;SDS011;2960;49.142;7.768;2023-03-02T07:19:24;12.30;;;4.60;;
5867;SDS011;2960;49.142;7.768;2023-03-02T07:21:51;12.20;;;4.53;;
5867;SDS011;2960;49.142;7.768;2023-03-02T07:24:18;12.10;;;4.90;;
5867;SDS011;2960;49.142;7.768;2023-03-02T07:26:46;12.13;;;4.47;;
5867;SDS011;2960;49.142;7.768;2023-03-02T07:29:15;13.20;;;4.53;;
5867;SDS011;2960;49.142;7.768;2023-03-02T07:31:44;13.80;;;5.00;;
5867;SDS011;2960;49.142;7.768;2023-03-02T07:34:12;12.07;;;4.20;;
5867;SDS011;2960;49.142;7.768;2023-03-02T07:36:40;12.40;;;4.67;;
5867;SDS011;2960;49.142;7.768;2023-03-02T07:39:07;14.03;;;4.57;;
5867;SDS011;2960;49.142;7.768;2023-03-02T07:41:34;10.60;;;4.00;;
5867;SDS011;2960;49.142;7.768;2023-03-02T07:44:01;11.30;;;3.90;;
5867;SDS011;2960;49.142;7.768;2023-03-02T07:46:30;12.10;;;3.70;;
5867;SDS011;2960;49.142;7.768;2023-03-02T07:48:57;10.50;;;4.00;;
5867;SDS011;2960;49.142;7.768;2023-03-02T07:51:24;13.97;;;4.40;;
5867;SDS011;2960;49.142;7.768;2023-03-02T07:53:51;10.73;;;3.83;;
5867;SDS011;2960;49.142;7.768;2023-03-02T07:56:19;11.17;;;4.07;;
5867;SDS011;2960;49.142;7.768;2023-03-02T07:58:46;12.03;;;4.90;;
5867;SDS011;2960;49.142;7.768;2023-03-02T08:01:14;16.07;;;4.80;;
5867;SDS011;2960;49.142;7.768;2023-03-02T08:03:42;11.77;;;4.57;;
5867;SDS011;2960;49.142;7.768;2023-03-02T08:06:10;13.60;;;5.03;;
5867;SDS011;2960;49.142;7.768;2023-03-02T08:08:38;12.20;;;4.70;;
5867;SDS011;2960;49.142;7.768;2023-03-02T08:11:06;11.63;;;4.73;;
5867;SDS011;2960;49.142;7.768;2023-03-02T08:13:35;12.93;;;5.13;;
5867;SDS011;2960;49.142;7.768;2023-03-02T08:16:03;12.60;;;5.00;;
5867;SDS011;2960;49.142;7.768;2023-03-02T08:18:35;12.20;;;4.80;;
5867;SDS011;2960;49.142;7.768;2023-03-02T08:21:08;12.97;;;5.03;;
5867;SDS011;2960;49.142;7.768;2023-03-02T08:23:38;13.20;;;4.87;;
5867;SDS011;2960;49.142;7.768;2023-03-02T08:26:05;15.03;;;5.63;;
5867;SDS011;2960;49.142;7.768;2023-03-02T08:28:32;13.40;;;5.00;;
5867;SDS011;2960;49.142;7.768;2023-03-02T08:31:02;13.67;;;5.77;;
5867;SDS011;2960;49.142;7.768;2023-03-02T08:33:30;14.30;;;5.97;;
5867;SDS011;2960;49.142;7.768;2023-03-02T08:35:59;14.60;;;5.40;;
5867;SDS011;2960;49.142;7.768;2023-03-02T08:38:29;14.47;;;6.33;;
5867;SDS011;2960;49.142;7.768;2023-03-02T08:40:57;13.70;;;6.07;;
5867;SDS011;2960;49.142;7.768;2023-03-02T08:43:28;16.30;;;6.40;;
5867;SDS011;2960;49.142;7.768;2023-03-02T08:45:58;15.57;;;6.70;;
5867;SDS011;2960;49.142;7.768;2023-03-02T08:48:25;15.73;;;6.47;;
5867;SDS011;2960;49.142;7.768;2023-03-02T08:50:56;17.20;;;6.90;;
5867;SDS011;2960;49.142;7.768;2023-03-02T08:53:27;15.97;;;6.67;;
5867;SDS011;2960;49.142;7.768;2023-03-02T08:55:58;16.60;;;7.53;;
5867;SDS011;2960;49.142;7.768;2023-03-02T08:58:25;20.27;;;7.70;;
5867;SDS011;2960;49.142;7.768;2023-03-02T09:00:53;19.27;;;7.27;;
5867;SDS011;2960;49.142;7.768;2023-03-02T09:03:20;20.57;;;8.30;;
5867;SDS011;2960;49.142;7.768;2023-03-02T09:05:47;22.07;;;7.33;;
5867;SDS011;2960;49.142;7.768;2023-03-02T09:08:15;15.30;;;7.33;;
5867;SDS011;2960;49.142;7.768;2023-03-02T09:10:43;16.87;;;7.10;;
5867;SDS011;2960;49.142;7.768;2023-03-02T09:13:13;18.00;;;7.73;;
5867;SDS011;2960;49.142;7.768;2023-03-02T09:15:40;16.53;;;7.73;;
5867;SDS011;2960;49.142;7.768;2023-03-02T09:18:07;15.77;;;7.17;;
5867;SDS011;2960;49.142;7.768;2023-03-02T09:20:34;20.70;;;8.40;;
5867;SDS011;2960;49.142;7.768;2023-03-02T09:23:01;16.40;;;7.40;;
5867;SDS011;2960;49.142;7.768;2023-03-02T09:25:28;18.60;;;7.30;;
5867;SDS011;2960;49.142;7.768;2023-03-02T09:27:57;17.90;;;7.70;;
5867;SDS011;2960;49.142;7.768;2023-03-02T09:30:24;19.43;;;8.87;;
5867;SDS011;2960;49.142;7.768;2023-03-02T09:32:51;21.33;;;8.13;;
5867;SDS011;2960;49.142;7.768;2023-03-02T09:35:18;18.40;;;9.00;;
5867;SDS011;2960;49.142;7.768;2023-03-02T09:37:45;21.00;;;9.33;;
5867;SDS011;2960;49.142;7.768;2023-03-02T09:40:16;22.13;;;9.30;;
5867;SDS011;2960;49.142;7.768;2023-03-02T09:42:53;21.87;;;9.33;;
5867;SDS011;2960;49.142;7.768;2023-03-02T09:48:22;18.60;;;8.00;;
5867;SDS011;2960;49.142;7.768;2023-03-02T09:51:11;20.60;;;9.20;;
5867;SDS011;2960;49.142;7.768;2023-03-02T09:53:56;17.50;;;7.37;;
5867;SDS011;2960;49.142;7.768;2023-03-02T09:56:35;18.60;;;7.77;;
5867;SDS011;2960;49.142;7.768;2023-03-02T09:59:12;16.37;;;7.60;;
5867;SDS011;2960;49.142;7.768;2023-03-02T10:01:50;16.23;;;7.50;;
5867;SDS011;2960;49.142;7.768;2023-03-02T10:04:23;15.93;;;7.80;;
5867;SDS011;2960;49.142;7.768;2023-03-02T10:06:54;18.53;;;7.87;;
5867;SDS011;2960;49.142;7.768;2023-03-02T10:09:26;16.50;;;6.40;;
5867;SDS011;2960;49.142;7.768;2023-03-02T10:11:58;18.53;;;8.13;;
5867;SDS011;2960;49.142;7.768;2023-03-02T10:14:45;21.97;;;7.97;;
5867;SDS011;2960;49.142;7.768;2023-03-02T10:17:22;16.00;;;7.60;;
5867;SDS011;2960;49.142;7.768;2023-03-02T10:20:08;22.63;;;8.70;;
5867;SDS011;2960;49.142;7.768;2023-03-02T10:22:43;19.37;;;9.07;;
5867;SDS011;2960;49.142;7.768;2023-03-02T10:25:19;22.70;;;10.00;;
5867;SDS011;2960;49.142;7.768;2023-03-02T10:27:57;22.27;;;10.20;;
5867;SDS011;2960;49.142;7.768;2023-03-02T10:30:38;17.50;;;8.30;;
5867;SDS011;2960;49.142;7.768;2023-03-02T10:33:08;18.93;;;8.20;;
5867;SDS011;2960;49.142;7.768;2023-03-02T10:35:42;16.37;;;7.60;;
5867;SDS011;2960;49.142;7.768;2023-03-02T10:38:12;25.50;;;8.50;;
5867;SDS011;2960;49.142;7.768;2023-03-02T10:40:45;16.30;;;8.17;;
5867;SDS011;2960;49.142;7.768;2023-03-02T10:43:15;18.10;;;9.00;;
5867;SDS011;2960;49.142;7.768;2023-03-02T10:45:56;21.10;;;8.90;;
5867;SDS011;2960;49.142;7.768;2023-03-02T10:48:25;19.00;;;9.00;;
5867;SDS011;2960;49.142;7.768;2023-03-02T10:50:53;18.27;;;8.23;;
5867;SDS011;2960;49.142;7.768;2023-03-02T10:53:21;22.10;;;9.30;;
5867;SDS011;2960;49.142;7.768;2023-03-02T10:55:49;18.00;;;8.23;;
5867;SDS011;2960;49.142;7.768;2023-03-02T10:58:20;16.67;;;8.30;;
5867;SDS011;2960;49.142;7.768;2023-03-02T11:00:55;17.93;;;8.60;;
5867;SDS011;2960;49.142;7.768;2023-03-02T11:03:27;15.83;;;8.33;;
5867;SDS011;2960;49.142;7.768;2023-03-02T11:05:55;17.13;;;8.47;;
5867;SDS011;2960;49.142;7.768;2023-03-02T11:08:25;21.30;;;8.63;;
5867;SDS011;2960;49.142;7.768;2023-03-02T11:10:54;17.23;;;7.90;;
5867;SDS011;2960;49.142;7.768;2023-03-02T11:13:24;19.27;;;8.90;;
5867;SDS011;2960;49.142;7.768;2023-03-02T11:15:54;17.30;;;8.67;;
5867;SDS011;2960;49.142;7.768;2023-03-02T11:18:25;17.40;;;7.90;;
5867;SDS011;2960;49.142;7.768;2023-03-02T11:20:58;18.37;;;9.07;;
5867;SDS011;2960;49.142;7.768;2023-03-02T11:23:32;16.77;;;7.73;;
5867;SDS011;2960;49.142;7.768;2023-03-02T11:26:19;17.77;;;7.83;;
5867;SDS011;2960;49.142;7.768;2023-03-02T11:28:52;16.13;;;7.37;;
5867;SDS011;2960;49.142;7.768;2023-03-02T11:31:31;17.50;;;8.23;;
5867;SDS011;2960;49.142;7.768;2023-03-02T11:34:12;17.20;;;8.20;;
5867;SDS011;2960;49.142;7.768;2023-03-02T11:36:55;17.10;;;7.80;;
5867;SDS011;2960;49.142;7.768;2023-03-02T11:39:35;18.20;;;8.03;;
5867;SDS011;2960;49.142;7.768;2023-03-02T11:42:27;16.00;;;8.00;;
5867;SDS011;2960;49.142;7.768;2023-03-02T11:44:59;16.73;;;7.80;;
5867;SDS011;2960;49.142;7.768;2023-03-02T11:47:31;16.10;;;7.60;;
5867;SDS011;2960;49.142;7.768;2023-03-02T11:50:00;18.00;;;7.57;;
5867;SDS011;2960;49.142;7.768;2023-03-02T11:52:37;15.50;;;7.90;;
5867;SDS011;2960;49.142;7.768;2023-03-02T11:55:13;16.37;;;8.30;;
5867;SDS011;2960;49.142;7.768;2023-03-02T11:57:45;14.80;;;7.47;;
5867;SDS011;2960;49.142;7.768;2023-03-02T12:00:19;19.00;;;8.27;;
5867;SDS011;2960;49.142;7.768;2023-03-02T12:02:59;17.13;;;7.63;;
5867;SDS011;2960;49.142;7.768;2023-03-02T12:05:30;16.60;;;8.17;;
5867;SDS011;2960;49.142;7.768;2023-03-02T12:08:01;14.67;;;7.10;;
5867;SDS011;2960;49.142;7.768;2023-03-02T12:10:31;16.13;;;7.97;;
5867;SDS011;2960;49.142;7.768;2023-03-02T12:13:06;16.30;;;7.00;;
5867;SDS011;2960;49.142;7.768;2023-03-02T12:15:43;14.93;;;7.10;;
5867;SDS011;2960;49.142;7.768;2023-03-02T12:18:23;16.30;;;7.43;;
5867;SDS011;2960;49.142;7.768;2023-03-02T12:21:08;16.13;;;7.97;;
5867;SDS011;2960;49.142;7.768;2023-03-02T12:23:40;16.83;;;8.60;;
5867;SDS011;2960;49.142;7.768;2023-03-02T12:26:24;18.57;;;8.27;;
5867;SDS011;2960;49.142;7.768;2023-03-02T12:28:57;17.90;;;7.97;;
5867;SDS011;2960;49.142;7.768;2023-03-02T12:31:43;17.57;;;8.50;;
5867;SDS011;2960;49.142;7.768;2023-03-02T12:34:23;18.13;;;9.13;;
5867;SDS011;2960;49.142;7.768;2023-03-02T12:37:01;17.47;;;7.70;;
5867;SDS011;2960;49.142;7.768;2023-03-02T12:39:45;18.60;;;8.60;;
5867;SDS011;2960;49.142;7.768;2023-03-02T12:42:55;17.77;;;8.13;;
5867;SDS011;2960;49.142;7.768;2023-03-02T12:45:45;17.17;;;8.30;;
5867;SDS011;2960;49.142;7.768;2023-03-02T12:48:49;15.97;;;7.17;;
5867;SDS011;2960;49.142;7.768;2023-03-02T12:54:21;17.63;;;7.60;;
5867;SDS011;2960;49.142;7.768;2023-03-02T12:57:01;17.33;;;8.20;;
5867;SDS011;2960;49.142;7.768;2023-03-02T12:59:32;17.90;;;8.63;;
5867;SDS011;2960;49.142;7.768;2023-03-02T13:04:52;17.97;;;7.80;;
5867;SDS011;2960;49.142;7.768;2023-03-02T13:07:25;14.73;;;7.40;;
5867;SDS011;2960;49.142;7.768;2023-03-02T13:09:54;16.00;;;6.90;;
5867;SDS011;2960;49.142;7.768;2023-03-02T13:12:26;15.80;;;7.77;;
5867;SDS011;2960;49.142;7.768;2023-03-02T13:15:02;17.90;;;7.90;;
5867;SDS011;2960;49.142;7.768;2023-03-02T13:17:39;17.07;;;7.47;;
5867;SDS011;2960;49.142;7.768;2023-03-02T13:20:08;14.53;;;7.17;;
5867;SDS011;2960;49.142;7.768;2023-03-02T13:22:40;15.80;;;7.27;;
5867;SDS011;2960;49.142;7.768;2023-03-02T13:25:24;15.87;;;6.70;;
5867;SDS011;2960;49.142;7.768;2023-03-02T13:27:54;15.23;;;6.50;;
5867;SDS011;2960;49.142;7.768;2023-03-02T13:30:25;14.30;;;6.67;;
5867;SDS011;2960;49.142;7.768;2023-03-02T13:32:56;14.37;;;6.80;;
5867;SDS011;2960;49.142;7.768;2023-03-02T13:35:28;14.10;;;6.17;;
5867;SDS011;2960;49.142;7.768;2023-03-02T13:38:00;16.70;;;7.70;;
5867;SDS011;2960;49.142;7.768;2023-03-02T13:40:32;17.43;;;6.80;;
5867;SDS011;2960;49.142;7.768;2023-03-02T13:43:19;17.80;;;7.23;;
5867;SDS011;2960;49.142;7.768;2023-03-02T13:45:52;16.37;;;8.00;;
5867;SDS011;2960;49.142;7.768;2023-03-02T13:48:21;16.33;;;7.30;;
5867;SDS011;2960;49.142;7.768;2023-03-02T13:50:50;16.77;;;7.17;;
5867;SDS011;2960;49.142;7.768;2023-03-02T13:53:21;15.97;;;6.80;;
5867;SDS011;2960;49.142;7.768;2023-03-02T13:55:49;18.90;;;8.17;;
5867;SDS011;2960;49.142;7.768;2023-03-02T13:58:18;18.07;;;7.60;;
5867;SDS011;2960;49.142;7.768;2023-03-02T14:00:48;15.47;;;7.43;;
5867;SDS011;2960;49.142;7.768;2023-03-02T14:03:20;17.00;;;7.60;;
5867;SDS011;2960;49.142;7.768;2023-03-02T14:05:50;16.13;;;7.37;;
5867;SDS011;2960;49.142;7.768;2023-03-02T14:08:18;17.60;;;7.50;;
5867;SDS011;2960;49.142;7.768;2023-03-02T14:10:50;17.70;;;6.87;;
5867;SDS011;2960;49.142;7.768;2023-03-02T14:13:21;15.27;;;6.70;;
5867;SDS011;2960;49.142;7.768;2023-03-02T14:15:51;16.27;;;7.60;;
5867;SDS011;2960;49.142;7.768;2023-03-02T14:18:30;16.60;;;6.90;;
5867;SDS011;2960;49.142;7.768;2023-03-02T14:21:04;16.30;;;7.07;;
5867;SDS011;2960;49.142;7.768;2023-03-02T14:23:37;20.70;;;7.47;;
5867;SDS011;2960;49.142;7.768;2023-03-02T14:26:08;15.43;;;7.17;;
5867;SDS011;2960;49.142;7.768;2023-03-02T14:28:50;15.27;;;6.70;;
5867;SDS011;2960;49.142;7.768;2023-03-02T14:31:20;15.53;;;6.63;;
5867;SDS011;2960;49.142;7.768;2023-03-02T14:33:48;15.40;;;6.60;;
5867;SDS011;2960;49.142;7.768;2023-03-02T14:36:17;14.07;;;6.23;;
5867;SDS011;2960;49.142;7.768;2023-03-02T14:38:49;15.03;;;6.13;;
5867;SDS011;2960;49.142;7.768;2023-03-02T14:41:17;15.50;;;6.30;;
5867;SDS011;2960;49.142;7.768;2023-03-02T14:43:48;17.67;;;7.23;;
5867;SDS011;2960;49.142;7.768;2023-03-02T14:46:19;16.53;;;7.00;;
5867;SDS011;2960;49.142;7.768;2023-03-02T14:48:47;14.57;;;6.30;;
5867;SDS011;2960;49.142;7.768;2023-03-02T14:51:17;15.03;;;7.00;;
5867;SDS011;2960;49.142;7.768;2023-03-02T14:53:47;14.30;;;6.20;;
5867;SDS011;2960;49.142;7.768;2023-03-02T14:56:18;14.37;;;6.17;;
5867;SDS011;2960;49.142;7.768;2023-03-02T14:58:49;15.10;;;6.17;;
5867;SDS011;2960;49.142;7.768;2023-03-02T15:01:18;16.93;;;7.23;;
5867;SDS011;2960;49.142;7.768;2023-03-02T15:03:47;17.70;;;7.03;;
5867;SDS011;2960;49.142;7.768;2023-03-02T15:06:21;15.77;;;6.63;;
5867;SDS011;2960;49.142;7.768;2023-03-02T15:08:53;13.90;;;5.80;;
5867;SDS011;2960;49.142;7.768;2023-03-02T15:11:23;16.03;;;6.07;;
5867;SDS011;2960;49.142;7.768;2023-03-02T15:13:50;15.70;;;6.80;;
5867;SDS011;2960;49.142;7.768;2023-03-02T15:16:18;15.93;;;5.90;;
5867;SDS011;2960;49.142;7.768;2023-03-02T15:18:47;13.53;;;6.47;;
5867;SDS011;2960;49.142;7.768;2023-03-02T15:21:15;13.93;;;6.17;;
5867;SDS011;2960;49.142;7.768;2023-03-02T15:23:45;12.63;;;5.63;;
5867;SDS011;2960;49.142;7.768;2023-03-02T15:26:13;14.40;;;5.73;;
5867;SDS011;2960;49.142;7.768;2023-03-02T15:28:40;13.63;;;6.07;;
5867;SDS011;2960;49.142;7.768;2023-03-02T15:31:10;15.17;;;6.40;;
5867;SDS011;2960;49.142;7.768;2023-03-02T15:33:41;13.90;;;6.07;;
5867;SDS011;2960;49.142;7.768;2023-03-02T15:36:10;14.70;;;6.10;;